createdAt,value
2017-11-14T00:01:20.737Z,101794.62
2017-11-14T00:03:48.375Z,101793.09
2017-11-14T00:06:15.979Z,101789.01
2017-11-14T00:08:43.609Z,101788.11
2017-11-14T00:11:11.219Z,101789.44
2017-11-14T00:13:38.888Z,101782.80
2017-11-14T00:16:06.494Z,101790.95
2017-11-14T00:18:34.140Z,101797.48
2017-11-14T00:21:01.749Z,101798.12
2017-11-14T00:23:29.394Z,101798.02
2017-11-14T00:25:57.010Z,101799.55
2017-11-14T00:28:24.669Z,101796.89
2017-11-14T00:30:52.279Z,101795.14
2017-11-14T00:33:19.904Z,101796.34
2017-11-14T00:35:47.518Z,101801.12
2017-11-14T00:38:15.170Z,101801.42
2017-11-14T00:40:42.765Z,101792.34
2017-11-14T00:43:10.622Z,101796.75
2017-11-14T00:45:38.222Z,101793.36
2017-11-14T00:48:05.864Z,101796.33
2017-11-14T00:50:33.580Z,101795.68
2017-11-14T00:53:01.238Z,101800.59
2017-11-14T00:55:28.902Z,101801.16
2017-11-14T00:57:56.553Z,101815.44
2017-11-14T01:00:24.330Z,101813.67
2017-11-14T01:02:51.967Z,101815.28
2017-11-14T01:05:19.558Z,101813.13
2017-11-14T01:07:47.214Z,101819.34
2017-11-14T01:10:14.826Z,101826.40
2017-11-14T01:12:42.470Z,101820.16
2017-11-14T01:15:10.073Z,101823.13
2017-11-14T01:17:37.715Z,101820.67
2017-11-14T01:20:05.334Z,101824.61
2017-11-14T01:22:32.946Z,101821.62
2017-11-14T01:25:00.622Z,101828.70
2017-11-14T01:27:28.231Z,101828.66
2017-11-14T01:29:55.861Z,101833.22
2017-11-14T01:32:23.457Z,101836.67
2017-11-14T01:34:51.239Z,101846.00
2017-11-14T01:37:18.839Z,101842.23
2017-11-14T01:39:46.474Z,101852.11
2017-11-14T01:42:14.101Z,101853.87
2017-11-14T01:44:41.740Z,101857.67
2017-11-14T01:47:09.344Z,101853.46
2017-11-14T01:49:37.011Z,101847.97
2017-11-14T01:52:04.614Z,101839.39
2017-11-14T01:54:32.258Z,101839.63
2017-11-14T01:56:59.863Z,101837.41
2017-11-14T01:59:27.615Z,101841.30
2017-11-14T02:01:55.245Z,101831.59
2017-11-14T02:04:22.874Z,101818.64
2017-11-14T02:06:50.474Z,101826.39
2017-11-14T02:09:18.105Z,101817.95
2017-11-14T02:11:45.697Z,101826.45
2017-11-14T02:14:13.435Z,101824.84
2017-11-14T02:16:41.040Z,101830.37
2017-11-14T02:19:08.722Z,101838.84
2017-11-14T02:21:36.309Z,101833.39
2017-11-14T02:24:03.938Z,101829.17
2017-11-14T02:26:31.588Z,101831.08
2017-11-14T02:28:59.214Z,101835.66
2017-11-14T02:31:26.814Z,101836.75
2017-11-14T02:33:54.443Z,101839.83
2017-11-14T02:36:22.052Z,101849.12
2017-11-14T02:38:49.678Z,101850.87
2017-11-14T02:41:17.290Z,101849.36
2017-11-14T02:43:44.930Z,101851.91
2017-11-14T02:46:12.543Z,101857.82
2017-11-14T02:48:40.191Z,101851.12
2017-11-14T02:51:07.787Z,101851.41
2017-11-14T02:53:35.454Z,101858.97
2017-11-14T02:56:03.060Z,101855.73
2017-11-14T02:58:30.699Z,101851.95
2017-11-14T03:00:58.304Z,101855.42
2017-11-14T03:03:25.934Z,101864.37
2017-11-14T03:05:53.545Z,101864.62
2017-11-14T03:08:21.245Z,101861.50
2017-11-14T03:10:48.862Z,101858.45
2017-11-14T03:13:16.523Z,101860.19
2017-11-14T03:15:44.114Z,101860.89
2017-11-14T03:18:11.774Z,101865.95
2017-11-14T03:20:39.358Z,101862.56
2017-11-14T03:23:06.976Z,101857.70
2017-11-14T03:25:34.568Z,101863.32
2017-11-14T03:28:02.203Z,101865.97
2017-11-14T03:30:29.795Z,101868.68
2017-11-14T03:32:57.439Z,101867.74
2017-11-14T03:35:25.050Z,101866.81
2017-11-14T03:37:52.686Z,101867.03
2017-11-14T03:40:20.391Z,101856.99
2017-11-14T03:42:48.035Z,101855.96
2017-11-14T03:45:15.631Z,101861.17
2017-11-14T03:47:43.291Z,101861.78
2017-11-14T03:50:10.880Z,101863.70
2017-11-14T03:52:38.678Z,101864.59
2017-11-14T03:55:06.278Z,101866.71
2017-11-14T03:57:34.018Z,101874.93
2017-11-14T04:00:01.613Z,101870.70
2017-11-14T04:02:29.245Z,101878.70
2017-11-14T04:04:56.859Z,101881.70
2017-11-14T04:07:24.926Z,101873.52
2017-11-14T04:09:52.536Z,101866.20
2017-11-14T04:12:20.166Z,101868.72
2017-11-14T04:14:47.775Z,101869.27
2017-11-14T04:17:15.409Z,101865.23
2017-11-14T04:19:43.034Z,101868.23
2017-11-14T04:22:10.667Z,101875.02
2017-11-14T04:24:38.268Z,101873.02
2017-11-14T04:27:05.899Z,101874.48
2017-11-14T04:29:33.509Z,101876.28
2017-11-14T04:32:01.149Z,101871.05
2017-11-14T04:34:28.769Z,101870.95
2017-11-14T04:36:56.404Z,101878.16
2017-11-14T04:39:24.009Z,101879.67
2017-11-14T04:41:51.656Z,101876.38
2017-11-14T04:44:19.271Z,101875.89
2017-11-14T04:46:46.917Z,101878.73
2017-11-14T04:49:14.624Z,101881.58
2017-11-14T04:51:42.258Z,101883.30
2017-11-14T04:54:09.890Z,101881.16
2017-11-14T04:56:37.529Z,101878.84
2017-11-14T04:59:05.122Z,101876.50
2017-11-14T05:01:32.759Z,101872.27
2017-11-14T05:04:00.386Z,101882.39
2017-11-14T05:06:28.025Z,101884.17
2017-11-14T05:08:55.715Z,101890.44
2017-11-14T05:11:23.366Z,101890.34
2017-11-14T05:13:50.962Z,101888.33
2017-11-14T05:16:18.594Z,101888.31
2017-11-14T05:18:46.198Z,101889.91
2017-11-14T05:21:13.896Z,101889.50
2017-11-14T05:23:41.528Z,101881.00
2017-11-14T05:26:09.190Z,101885.71
2017-11-14T05:28:36.843Z,101879.16
2017-11-14T05:31:04.491Z,101876.38
2017-11-14T05:33:32.108Z,101876.84
2017-11-14T05:35:59.758Z,101872.77
2017-11-14T05:38:27.370Z,101878.00
2017-11-14T05:40:55.162Z,101879.88
2017-11-14T05:43:22.767Z,101888.28
2017-11-14T05:45:50.397Z,101891.73
2017-11-14T05:48:18.005Z,101883.20
2017-11-14T05:50:45.647Z,101892.22
2017-11-14T05:53:13.262Z,101888.63
2017-11-14T05:55:40.867Z,101885.34
2017-11-14T05:58:08.511Z,101886.10
2017-11-14T06:00:36.223Z,101886.99
2017-11-14T06:03:03.978Z,101893.68
2017-11-14T06:05:31.746Z,101894.81
2017-11-14T06:07:59.387Z,101895.69
2017-11-14T06:10:27.114Z,101893.23
2017-11-14T06:12:54.749Z,101891.52
2017-11-14T06:15:22.349Z,101899.71
2017-11-14T06:17:50.000Z,101906.73
2017-11-14T06:20:17.618Z,101909.28
2017-11-14T06:22:45.331Z,101910.00
2017-11-14T06:25:12.944Z,101911.17
2017-11-14T06:27:40.580Z,101914.92
2017-11-14T06:30:08.326Z,101910.72
2017-11-14T06:32:35.931Z,101907.13
2017-11-14T06:35:03.577Z,101910.88
2017-11-14T06:37:31.190Z,101916.18
2017-11-14T06:39:58.831Z,101916.55
2017-11-14T06:42:26.430Z,101917.03
2017-11-14T06:44:54.105Z,101919.23
2017-11-14T06:47:21.720Z,101920.22
2017-11-14T06:49:49.404Z,101917.88
2017-11-14T06:52:17.007Z,101923.86
2017-11-14T06:54:44.650Z,101926.81
2017-11-14T06:57:12.267Z,101925.08
2017-11-14T06:59:39.882Z,101931.77
2017-11-14T07:02:07.537Z,101936.44
2017-11-14T07:04:35.154Z,101945.91
2017-11-14T07:07:02.799Z,101947.83
2017-11-14T07:09:30.426Z,101950.55
2017-11-14T07:11:58.077Z,101955.85
2017-11-14T07:14:25.697Z,101947.59
2017-11-14T07:16:53.350Z,101956.52
2017-11-14T07:19:20.974Z,101954.72
2017-11-14T07:21:48.601Z,101966.35
2017-11-14T07:24:16.203Z,101967.02
2017-11-14T07:26:43.936Z,101965.11
2017-11-14T07:29:11.755Z,101972.44
2017-11-14T07:31:39.396Z,101976.05
2017-11-14T07:34:06.998Z,101977.99
2017-11-14T07:36:34.751Z,101985.37
2017-11-14T07:39:02.354Z,101985.25
2017-11-14T07:41:30.023Z,101986.33
2017-11-14T07:43:57.631Z,101986.20
2017-11-14T07:46:25.312Z,101986.38
2017-11-14T07:48:52.931Z,101982.44
2017-11-14T07:51:20.644Z,101980.95
2017-11-14T07:53:48.259Z,101983.33
2017-11-14T07:56:15.911Z,101987.72
2017-11-14T07:58:43.515Z,101984.06
2017-11-14T08:01:11.158Z,101975.66
2017-11-14T08:03:38.784Z,101973.95
2017-11-14T08:06:06.454Z,101977.25
2017-11-14T08:08:34.111Z,101983.39
2017-11-14T08:11:01.761Z,101986.37
2017-11-14T08:13:29.370Z,101979.51
2017-11-14T08:15:56.994Z,101985.59
2017-11-14T08:18:24.592Z,101986.63
2017-11-14T08:20:52.247Z,101984.27
2017-11-14T08:23:19.851Z,101982.22
2017-11-14T08:25:47.510Z,101985.91
2017-11-14T08:28:15.127Z,101983.13
2017-11-14T08:30:42.763Z,101979.69
2017-11-14T08:33:10.387Z,101986.89
2017-11-14T08:35:38.035Z,101988.44
2017-11-14T08:38:05.667Z,101980.61
2017-11-14T08:40:33.295Z,101988.84
2017-11-14T08:43:00.889Z,101984.86
2017-11-14T08:45:28.551Z,101985.99
2017-11-14T08:47:56.169Z,101987.69
2017-11-14T08:50:23.811Z,101983.52
2017-11-14T08:52:51.420Z,101985.57
2017-11-14T08:55:19.114Z,101985.11
2017-11-14T08:57:46.739Z,101983.06
2017-11-14T09:00:14.370Z,101986.38
2017-11-14T09:02:41.987Z,101990.59
2017-11-14T09:05:09.663Z,101984.52
2017-11-14T09:07:37.319Z,101972.91
2017-11-14T09:10:04.978Z,101972.60
2017-11-14T09:12:32.600Z,101974.17
2017-11-14T09:15:00.226Z,101973.64
2017-11-14T09:17:27.831Z,101972.70
2017-11-14T09:19:55.621Z,101974.12
2017-11-14T09:22:23.223Z,101970.62
2017-11-14T09:24:50.854Z,101967.27
2017-11-14T09:27:18.555Z,101965.64
2017-11-14T09:29:46.185Z,101965.44
2017-11-14T09:32:13.796Z,101974.44
2017-11-14T09:34:41.423Z,101974.75
2017-11-14T09:37:09.016Z,101981.69
2017-11-14T09:39:36.643Z,101972.47
2017-11-14T09:42:04.246Z,101974.81
2017-11-14T09:44:31.891Z,101969.59
2017-11-14T09:46:59.500Z,101969.10
2017-11-14T09:49:27.126Z,101972.36
2017-11-14T09:51:54.736Z,101977.58
2017-11-14T09:54:22.371Z,101975.81
2017-11-14T09:56:50.001Z,101965.27
2017-11-14T09:59:17.655Z,101963.43
2017-11-14T10:01:45.254Z,101964.23
2017-11-14T10:04:12.893Z,101957.77
2017-11-14T10:06:40.479Z,101964.30
2017-11-14T10:09:08.112Z,101962.13
2017-11-14T10:11:35.800Z,101956.06
2017-11-14T10:14:03.424Z,101958.39
2017-11-14T10:16:31.138Z,101948.37
2017-11-14T10:18:58.763Z,101952.02
2017-11-14T10:21:26.365Z,101963.17
2017-11-14T10:23:54.008Z,101962.06
2017-11-14T10:26:21.698Z,101964.70
2017-11-14T10:28:49.288Z,101970.06
2017-11-14T10:31:16.923Z,101961.42
2017-11-14T10:33:44.555Z,101968.95
2017-11-14T10:36:12.160Z,101962.67
2017-11-14T10:38:39.831Z,101960.11
2017-11-14T10:41:07.427Z,101960.42
2017-11-14T10:43:35.048Z,101965.13
2017-11-14T10:46:02.637Z,101970.94
2017-11-14T10:48:30.272Z,101984.19
2017-11-14T10:50:57.871Z,101982.13
2017-11-14T10:53:25.508Z,101980.48
2017-11-14T10:55:53.117Z,101976.75
2017-11-14T10:58:20.726Z,101978.02
2017-11-14T11:00:48.307Z,101978.63
2017-11-14T11:03:15.931Z,101969.83
2017-11-14T11:05:43.602Z,101972.92
2017-11-14T11:08:11.275Z,101974.84
2017-11-14T11:10:38.862Z,101974.09
2017-11-14T11:13:06.489Z,101971.11
2017-11-14T11:15:34.079Z,101971.31
2017-11-14T11:18:01.727Z,101963.72
2017-11-14T11:20:29.331Z,101964.77
2017-11-14T11:22:56.978Z,101958.25
2017-11-14T11:25:24.573Z,101955.23
2017-11-14T11:27:52.163Z,101956.48
2017-11-14T11:30:19.789Z,101960.80
2017-11-14T11:32:47.570Z,101956.14
2017-11-14T11:35:15.178Z,101956.55
2017-11-14T11:37:42.778Z,101951.77
2017-11-14T11:40:10.407Z,101948.87
2017-11-14T11:42:38.015Z,101950.52
2017-11-14T11:45:05.660Z,101944.45
2017-11-14T11:47:33.938Z,101948.80
2017-11-14T11:50:01.551Z,101942.58
2017-11-14T11:52:29.164Z,101943.25
2017-11-14T11:54:56.823Z,101947.72
2017-11-14T11:57:24.406Z,101937.48
2017-11-14T11:59:52.049Z,101942.80
2017-11-14T12:02:21.229Z,101933.22
2017-11-14T12:04:48.906Z,101923.45
2017-11-14T12:07:16.499Z,101922.00
2017-11-14T12:09:44.164Z,101921.50
2017-11-14T12:12:11.770Z,101925.06
2017-11-14T12:14:39.407Z,101917.03
2017-11-14T12:17:07.011Z,101922.55
2017-11-14T12:19:34.645Z,101922.28
2017-11-14T12:22:02.243Z,101919.31
2017-11-14T12:24:29.883Z,101914.42
2017-11-14T12:26:57.500Z,101906.93
2017-11-14T12:29:25.166Z,101908.39
2017-11-14T12:31:52.757Z,101909.86
2017-11-14T12:34:20.398Z,101913.42
2017-11-14T12:36:48.009Z,101911.10
2017-11-14T12:39:15.656Z,101906.11
2017-11-14T12:41:43.250Z,101905.73
2017-11-14T12:44:10.884Z,101907.63
2017-11-14T12:46:38.538Z,101905.02
2017-11-14T12:49:06.202Z,101906.19
2017-11-14T12:51:33.885Z,101901.09
2017-11-14T12:54:01.532Z,101900.83
2017-11-14T12:56:29.132Z,101898.36
2017-11-14T12:58:56.759Z,101901.98
2017-11-14T13:01:24.364Z,101909.23
2017-11-14T13:03:52.131Z,101906.66
2017-11-14T13:06:19.734Z,101897.67
2017-11-14T13:08:47.406Z,101903.80
2017-11-14T13:11:14.990Z,101896.51
2017-11-14T13:13:42.611Z,101901.37
2017-11-14T13:16:10.283Z,101895.67
2017-11-14T13:18:37.931Z,101895.63
2017-11-14T13:21:05.535Z,101902.97
2017-11-14T13:23:33.172Z,101899.45
2017-11-14T13:26:00.766Z,101898.77
2017-11-14T13:28:28.398Z,101894.48
2017-11-14T13:30:55.996Z,101891.00
2017-11-14T13:33:23.620Z,101889.50
2017-11-14T13:35:51.219Z,101888.73
2017-11-14T13:38:18.835Z,101891.02
2017-11-14T13:40:46.451Z,101890.92
2017-11-14T13:43:14.079Z,101893.50
2017-11-14T13:45:41.735Z,101896.77
2017-11-14T13:48:09.382Z,101892.47
2017-11-14T13:50:36.998Z,101899.51
2017-11-14T13:53:04.673Z,101900.09
2017-11-14T13:55:32.268Z,101889.70
2017-11-14T13:57:59.939Z,101898.13
2017-11-14T14:00:27.529Z,101891.59
2017-11-14T14:02:55.188Z,101892.36
2017-11-14T14:05:22.807Z,101887.36
2017-11-14T14:07:50.446Z,101889.55
2017-11-14T14:10:18.056Z,101889.58
2017-11-14T14:12:45.701Z,101887.81
2017-11-14T14:15:13.324Z,101886.48
2017-11-14T14:17:41.155Z,101888.24
2017-11-14T14:20:09.026Z,101887.94
2017-11-14T14:22:36.983Z,101893.20
2017-11-14T14:25:04.916Z,101890.53
2017-11-14T14:27:32.866Z,101894.89
2017-11-14T14:30:01.617Z,101897.34
2017-11-14T14:32:29.550Z,101896.77
2017-11-14T14:34:57.453Z,101892.19
2017-11-14T14:37:25.385Z,101897.23
2017-11-14T14:39:53.292Z,101892.88
2017-11-14T14:42:21.093Z,101893.79
2017-11-14T14:44:48.784Z,101894.13
2017-11-14T14:47:16.436Z,101889.89
2017-11-14T14:49:44.054Z,101889.31
2017-11-14T14:52:11.684Z,101885.53
2017-11-14T14:54:39.308Z,101884.20
2017-11-14T14:57:07.066Z,101884.73
2017-11-14T14:59:34.675Z,101888.13
2017-11-14T15:02:02.311Z,101890.39
2017-11-14T15:04:29.948Z,101883.25
2017-11-14T15:06:57.559Z,101879.54
2017-11-14T15:09:25.199Z,101882.70
2017-11-14T15:11:52.840Z,101884.92
2017-11-14T15:14:20.506Z,101883.52
2017-11-14T15:16:48.137Z,101884.39
2017-11-14T15:19:15.804Z,101882.56
2017-11-14T15:21:43.402Z,101885.16
2017-11-14T15:24:11.016Z,101882.67
2017-11-14T15:26:38.617Z,101885.46
2017-11-14T15:29:06.275Z,101883.91
2017-11-14T15:31:33.883Z,101891.31
2017-11-14T15:34:01.515Z,101889.48
2017-11-14T15:36:29.133Z,101892.80
2017-11-14T15:38:56.790Z,101891.08
2017-11-14T15:41:24.415Z,101890.09
2017-11-14T15:43:52.060Z,101890.13
2017-11-14T15:46:19.691Z,101892.00
2017-11-14T15:48:47.335Z,101892.11
2017-11-14T15:51:14.984Z,101893.68
2017-11-14T15:53:42.626Z,101889.89
2017-11-14T15:56:10.337Z,101891.46
2017-11-14T15:58:37.983Z,101889.29
2017-11-14T16:01:05.646Z,101890.23
2017-11-14T16:03:33.286Z,101886.23
2017-11-14T16:06:00.886Z,101886.58
2017-11-14T16:08:28.524Z,101890.66
2017-11-14T16:10:56.143Z,101889.97
2017-11-14T16:13:23.819Z,101895.94
2017-11-14T16:15:51.425Z,101899.45
2017-11-14T16:18:19.127Z,101890.59
2017-11-14T16:20:46.731Z,101896.16
2017-11-14T16:23:14.375Z,101894.79
2017-11-14T16:25:41.987Z,101896.93
2017-11-14T16:28:09.633Z,101893.14
2017-11-14T16:30:37.232Z,101894.21
2017-11-14T16:33:04.887Z,101899.56
2017-11-14T16:35:32.513Z,101893.27
2017-11-14T16:38:00.201Z,101902.50
2017-11-14T16:40:27.817Z,101901.55
2017-11-14T16:42:55.475Z,101911.75
2017-11-14T16:45:23.121Z,101918.27
2017-11-14T16:47:50.850Z,101920.11
2017-11-14T16:50:18.443Z,101915.19
2017-11-14T16:52:46.094Z,101919.80
2017-11-14T16:55:13.698Z,101925.34
2017-11-14T16:57:41.361Z,101925.88
2017-11-14T17:00:08.984Z,101926.91
2017-11-14T17:02:36.631Z,101933.82
2017-11-14T17:05:04.283Z,101928.70
2017-11-14T17:07:31.943Z,101932.06
2017-11-14T17:09:59.566Z,101929.28
2017-11-14T17:12:27.203Z,101924.58
2017-11-14T17:14:54.819Z,101931.06
2017-11-14T17:17:22.467Z,101931.71
2017-11-14T17:19:50.143Z,101934.08
2017-11-14T17:22:17.827Z,101930.38
2017-11-14T17:24:45.426Z,101934.50
2017-11-14T17:27:13.083Z,101927.63
2017-11-14T17:29:40.691Z,101931.63
2017-11-14T17:32:08.328Z,101932.25
2017-11-14T17:34:35.942Z,101935.79
2017-11-14T17:37:03.622Z,101935.30
2017-11-14T17:39:31.253Z,101938.69
2017-11-14T17:41:58.915Z,101933.23
2017-11-14T17:44:26.534Z,101941.14
2017-11-14T17:46:54.177Z,101942.13
2017-11-14T17:49:21.794Z,101940.95
2017-11-14T17:51:49.447Z,101946.41
2017-11-14T17:54:17.051Z,101951.77
2017-11-14T17:56:44.709Z,101945.08
2017-11-14T17:59:12.323Z,101943.86
2017-11-14T18:01:39.965Z,101953.26
2017-11-14T18:04:07.575Z,101955.40
2017-11-14T18:06:35.227Z,101950.28
2017-11-14T18:09:02.861Z,101953.59
2017-11-14T18:11:30.518Z,101959.06
2017-11-14T18:13:58.136Z,101962.98
2017-11-14T18:16:25.778Z,101953.94
2017-11-14T18:18:53.488Z,101958.64
2017-11-14T18:21:21.117Z,101950.81
2017-11-14T18:23:48.717Z,101963.27
2017-11-14T18:26:16.387Z,101960.28
2017-11-14T18:28:44.032Z,101965.24
2017-11-14T18:31:11.849Z,101961.81
2017-11-14T18:33:39.442Z,101968.95
2017-11-14T18:36:07.122Z,101967.08
2017-11-14T18:38:34.761Z,101966.24
2017-11-14T18:41:02.405Z,101962.31
2017-11-14T18:43:30.096Z,101968.08
2017-11-14T18:45:57.777Z,101971.62
2017-11-14T18:48:25.373Z,101969.98
2017-11-14T18:50:52.983Z,101979.33
2017-11-14T18:53:20.628Z,101979.45
2017-11-14T18:55:48.510Z,101984.41
2017-11-14T18:58:16.166Z,101989.17
2017-11-14T19:00:43.842Z,101988.03
2017-11-14T19:03:11.457Z,101990.20
2017-11-14T19:05:39.108Z,101990.53
2017-11-14T19:08:06.716Z,101993.20
2017-11-14T19:10:34.375Z,101985.50
2017-11-14T19:13:02.063Z,101989.31
2017-11-14T19:15:29.800Z,101992.70
2017-11-14T19:17:57.436Z,101992.44
2017-11-14T19:20:25.108Z,101991.82
2017-11-14T19:22:52.749Z,101994.60
2017-11-14T19:25:20.456Z,101994.91
2017-11-14T19:27:48.072Z,101996.94
2017-11-14T19:30:15.734Z,101993.46
2017-11-14T19:32:43.407Z,101987.39
2017-11-14T19:35:11.149Z,101991.96
2017-11-14T19:37:38.895Z,101989.93
2017-11-14T19:40:06.580Z,101992.69
2017-11-14T19:42:34.382Z,101992.19
2017-11-14T19:45:02.122Z,101995.97
2017-11-14T19:47:29.910Z,101993.94
2017-11-14T19:49:57.799Z,101992.60
2017-11-14T19:52:25.698Z,101992.80
2017-11-14T19:54:53.582Z,101999.48
2017-11-14T19:57:21.469Z,102004.13
2017-11-14T19:59:49.362Z,102009.47
2017-11-14T20:02:17.268Z,102012.31
2017-11-14T20:04:45.122Z,102009.30
2017-11-14T20:07:13.004Z,102019.69
2017-11-14T20:09:40.953Z,102022.78
2017-11-14T20:12:08.804Z,102019.69
2017-11-14T20:14:36.698Z,102016.02
2017-11-14T20:17:04.614Z,102029.41
2017-11-14T20:19:32.517Z,102024.89
2017-11-14T20:22:00.509Z,102035.14
2017-11-14T20:24:28.383Z,102033.66
2017-11-14T20:26:56.357Z,102031.61
2017-11-14T20:29:24.554Z,102031.99
2017-11-14T20:31:52.589Z,102029.98
2017-11-14T20:34:20.705Z,102032.45
2017-11-14T20:36:48.748Z,102036.89
2017-11-14T20:39:16.653Z,102037.13
2017-11-14T20:41:44.665Z,102042.47
2017-11-14T20:44:12.639Z,102035.38
2017-11-14T20:46:40.624Z,102038.23
2017-11-14T20:49:08.598Z,102041.23
2017-11-14T20:51:36.556Z,102044.41
2017-11-14T20:54:04.453Z,102040.86
2017-11-14T20:56:32.383Z,102037.50
2017-11-14T20:59:00.168Z,102042.95
2017-11-14T21:01:27.922Z,102046.44
2017-11-14T21:03:55.580Z,102041.29
2017-11-14T21:06:23.245Z,102038.41
2017-11-14T21:08:50.899Z,102038.90
2017-11-14T21:11:18.673Z,102032.86
2017-11-14T21:13:46.274Z,102038.44
2017-11-14T21:16:14.051Z,102036.48
2017-11-14T21:18:41.690Z,102035.80
2017-11-14T21:21:09.351Z,102035.40
2017-11-14T21:23:36.967Z,102035.45
2017-11-14T21:26:04.618Z,102030.84
2017-11-14T21:28:32.247Z,102033.52
2017-11-14T21:30:59.893Z,102030.84
2017-11-14T21:33:27.520Z,102023.38
2017-11-14T21:35:55.172Z,102028.81
2017-11-14T21:38:22.854Z,102025.19
2017-11-14T21:40:50.517Z,102024.91
2017-11-14T21:43:19.826Z,102024.81
2017-11-14T21:45:47.517Z,102026.05
2017-11-14T21:48:15.138Z,102028.30
2017-11-14T21:50:42.823Z,102032.93
2017-11-14T21:53:10.443Z,102033.73
2017-11-14T21:55:38.167Z,102037.14
2017-11-14T21:58:05.793Z,102032.52
2017-11-14T22:00:33.430Z,102030.56
2017-11-14T22:03:01.044Z,102038.60
2017-11-14T22:05:28.691Z,102037.88
2017-11-14T22:07:56.309Z,102039.92
2017-11-14T22:10:23.962Z,102042.89
2017-11-14T22:12:51.587Z,102038.09
2017-11-14T22:15:19.267Z,102036.75
2017-11-14T22:17:46.877Z,102042.38
2017-11-14T22:20:14.538Z,102037.75
2017-11-14T22:22:42.171Z,102042.38
2017-11-14T22:25:09.814Z,102036.84
2017-11-14T22:27:37.438Z,102045.36
2017-11-14T22:30:05.100Z,102038.88
2017-11-14T22:32:32.714Z,102035.42
2017-11-14T22:35:00.362Z,102035.19
2017-11-14T22:37:27.994Z,102042.17
2017-11-14T22:39:55.657Z,102042.06
2017-11-14T22:42:23.318Z,102038.09
2017-11-14T22:44:51.067Z,102041.45
2017-11-14T22:47:18.696Z,102034.52
2017-11-14T22:49:46.363Z,102043.50
2017-11-14T22:52:13.988Z,102040.20
2017-11-14T22:54:41.646Z,102042.70
2017-11-14T22:57:09.263Z,102041.97
2017-11-14T22:59:36.928Z,102042.70
2017-11-14T23:02:04.535Z,102042.89
2017-11-14T23:04:32.251Z,102049.25
2017-11-14T23:06:59.891Z,102047.39
2017-11-14T23:09:27.513Z,102048.02
2017-11-14T23:11:55.235Z,102050.16
2017-11-14T23:14:22.891Z,102050.77
2017-11-14T23:16:50.499Z,102047.92
2017-11-14T23:19:18.167Z,102048.34
2017-11-14T23:21:45.816Z,102047.63
2017-11-14T23:24:13.419Z,102043.08
2017-11-14T23:26:41.054Z,102047.60
2017-11-14T23:29:08.666Z,102050.37
2017-11-14T23:31:36.299Z,102043.91
2017-11-14T23:34:03.916Z,102047.50
2017-11-14T23:36:31.555Z,102044.86
2017-11-14T23:38:59.217Z,102044.65
2017-11-14T23:41:26.831Z,102051.59
2017-11-14T23:43:54.483Z,102052.52
2017-11-14T23:46:22.092Z,102044.13
2017-11-14T23:48:49.742Z,102045.96
2017-11-14T23:51:17.350Z,102043.51
2017-11-14T23:53:44.986Z,102038.16
2017-11-14T23:56:12.603Z,102039.42
2017-11-14T23:58:40.254Z,102033.98
